sensor_id;sensor_type;location;lat;lon;timestamp;P1;durP1;ratioP1;P2;durP2;ratioP2
59846;SDS011;45728;48.788;2.302;2023-09-07T00:00:49;7.00;;;4.00;;
59846;SDS011;45728;48.788;2.302;2023-09-07T00:03:15;5.15;;;3.22;;
59846;SDS011;45728;48.788;2.302;2023-09-07T00:05:41;4.97;;;3.38;;
59846;SDS011;45728;48.788;2.302;2023-09-07T00:08:07;5.40;;;3.67;;
59846;SDS011;45728;48.788;2.302;2023-09-07T00:10:33;5.45;;;3.50;;
59846;SDS011;45728;48.788;2.302;2023-09-07T00:13:03;4.63;;;3.28;;
59846;SDS011;45728;48.788;2.302;2023-09-07T00:15:30;6.32;;;3.80;;
59846;SDS011;45728;48.788;2.302;2023-09-07T00:18:01;5.75;;;3.42;;
59846;SDS011;45728;48.788;2.302;2023-09-07T00:20:27;5.40;;;4.15;;
59846;SDS011;45728;48.788;2.302;2023-09-07T00:22:53;4.95;;;3.45;;
59846;SDS011;45728;48.788;2.302;2023-09-07T00:25:19;4.53;;;3.17;;
59846;SDS011;45728;48.788;2.302;2023-09-07T00:27:46;4.68;;;3.53;;
59846;SDS011;45728;48.788;2.302;2023-09-07T00:30:12;5.07;;;2.90;;
59846;SDS011;45728;48.788;2.302;2023-09-07T00:32:38;7.65;;;3.40;;
59846;SDS011;45728;48.788;2.302;2023-09-07T00:35:05;4.55;;;3.20;;
59846;SDS011;45728;48.788;2.302;2023-09-07T00:37:32;4.90;;;3.15;;
59846;SDS011;45728;48.788;2.302;2023-09-07T00:39:58;5.78;;;3.20;;
59846;SDS011;45728;48.788;2.302;2023-09-07T00:42:24;3.72;;;3.20;;
59846;SDS011;45728;48.788;2.302;2023-09-07T00:44:51;4.80;;;3.40;;
59846;SDS011;45728;48.788;2.302;2023-09-07T00:47:17;5.00;;;2.90;;
59846;SDS011;45728;48.788;2.302;2023-09-07T00:49:43;5.18;;;3.50;;
59846;SDS011;45728;48.788;2.302;2023-09-07T00:52:11;5.93;;;3.20;;
59846;SDS011;45728;48.788;2.302;2023-09-07T00:54:37;5.43;;;3.22;;
59846;SDS011;45728;48.788;2.302;2023-09-07T00:57:07;4.30;;;3.25;;
59846;SDS011;45728;48.788;2.302;2023-09-07T00:59:33;3.90;;;3.47;;
59846;SDS011;45728;48.788;2.302;2023-09-07T01:01:59;6.93;;;3.28;;
59846;SDS011;45728;48.788;2.302;2023-09-07T01:04:26;4.45;;;3.10;;
59846;SDS011;45728;48.788;2.302;2023-09-07T01:06:56;4.38;;;3.33;;
59846;SDS011;45728;48.788;2.302;2023-09-07T01:09:28;4.20;;;3.47;;
59846;SDS011;45728;48.788;2.302;2023-09-07T01:14:23;5.88;;;3.47;;
59846;SDS011;45728;48.788;2.302;2023-09-07T01:16:49;5.40;;;3.53;;
59846;SDS011;45728;48.788;2.302;2023-09-07T01:19:16;6.30;;;3.85;;
59846;SDS011;45728;48.788;2.302;2023-09-07T01:21:42;7.32;;;3.50;;
59846;SDS011;45728;48.788;2.302;2023-09-07T01:24:09;7.07;;;3.55;;
59846;SDS011;45728;48.788;2.302;2023-09-07T01:26:36;3.97;;;3.50;;
59846;SDS011;45728;48.788;2.302;2023-09-07T01:31:38;5.47;;;3.58;;
59846;SDS011;45728;48.788;2.302;2023-09-07T01:34:04;6.47;;;3.78;;
59846;SDS011;45728;48.788;2.302;2023-09-07T01:36:31;3.90;;;3.50;;
59846;SDS011;45728;48.788;2.302;2023-09-07T01:38:58;5.90;;;3.78;;
59846;SDS011;45728;48.788;2.302;2023-09-07T01:41:24;5.97;;;3.88;;
59846;SDS011;45728;48.788;2.302;2023-09-07T01:43:50;5.28;;;4.00;;
59846;SDS011;45728;48.788;2.302;2023-09-07T01:46:16;6.28;;;3.88;;
59846;SDS011;45728;48.788;2.302;2023-09-07T01:48:42;4.55;;;3.85;;
59846;SDS011;45728;48.788;2.302;2023-09-07T01:51:08;4.28;;;3.78;;
59846;SDS011;45728;48.788;2.302;2023-09-07T01:53:34;4.07;;;3.67;;
59846;SDS011;45728;48.788;2.302;2023-09-07T01:56:00;5.43;;;3.47;;
59846;SDS011;45728;48.788;2.302;2023-09-07T01:58:26;4.63;;;3.92;;
59846;SDS011;45728;48.788;2.302;2023-09-07T02:00:56;4.07;;;3.67;;
59846;SDS011;45728;48.788;2.302;2023-09-07T02:03:23;4.75;;;3.63;;
59846;SDS011;45728;48.788;2.302;2023-09-07T02:05:49;5.13;;;3.88;;
59846;SDS011;45728;48.788;2.302;2023-09-07T02:08:15;5.68;;;3.72;;
59846;SDS011;45728;48.788;2.302;2023-09-07T02:10:42;6.03;;;4.30;;
59846;SDS011;45728;48.788;2.302;2023-09-07T02:13:08;4.78;;;4.03;;
59846;SDS011;45728;48.788;2.302;2023-09-07T02:15:37;4.53;;;4.13;;
59846;SDS011;45728;48.788;2.302;2023-09-07T02:20:34;6.07;;;3.72;;
59846;SDS011;45728;48.788;2.302;2023-09-07T02:25:26;4.00;;;3.60;;
59846;SDS011;45728;48.788;2.302;2023-09-07T02:27:53;5.18;;;4.00;;
59846;SDS011;45728;48.788;2.302;2023-09-07T02:30:19;5.78;;;3.60;;
59846;SDS011;45728;48.788;2.302;2023-09-07T02:32:45;4.30;;;3.83;;
59846;SDS011;45728;48.788;2.302;2023-09-07T02:35:11;4.15;;;3.75;;
59846;SDS011;45728;48.788;2.302;2023-09-07T02:37:37;6.05;;;3.78;;
59846;SDS011;45728;48.788;2.302;2023-09-07T02:40:03;4.63;;;4.10;;
59846;SDS011;45728;48.788;2.302;2023-09-07T02:42:34;4.50;;;3.60;;
59846;SDS011;45728;48.788;2.302;2023-09-07T02:45:00;9.07;;;4.07;;
59846;SDS011;45728;48.788;2.302;2023-09-07T02:47:26;5.75;;;4.10;;
59846;SDS011;45728;48.788;2.302;2023-09-07T02:49:52;6.00;;;3.90;;
59846;SDS011;45728;48.788;2.302;2023-09-07T02:52:18;5.50;;;4.25;;
59846;SDS011;45728;48.788;2.302;2023-09-07T02:54:44;5.93;;;3.78;;
59846;SDS011;45728;48.788;2.302;2023-09-07T02:57:11;7.97;;;4.22;;
59846;SDS011;45728;48.788;2.302;2023-09-07T02:59:38;7.10;;;4.22;;
59846;SDS011;45728;48.788;2.302;2023-09-07T03:02:04;4.75;;;3.78;;
59846;SDS011;45728;48.788;2.302;2023-09-07T03:04:30;6.13;;;4.20;;
59846;SDS011;45728;48.788;2.302;2023-09-07T03:06:56;7.22;;;3.95;;
59846;SDS011;45728;48.788;2.302;2023-09-07T03:09:22;4.53;;;4.00;;
59846;SDS011;45728;48.788;2.302;2023-09-07T03:11:48;5.15;;;3.80;;
59846;SDS011;45728;48.788;2.302;2023-09-07T03:14:14;5.53;;;4.10;;
59846;SDS011;45728;48.788;2.302;2023-09-07T03:16:40;4.82;;;4.32;;
59846;SDS011;45728;48.788;2.302;2023-09-07T03:19:06;4.90;;;3.80;;
59846;SDS011;45728;48.788;2.302;2023-09-07T03:21:32;6.47;;;4.07;;
59846;SDS011;45728;48.788;2.302;2023-09-07T03:23:59;5.57;;;4.03;;
59846;SDS011;45728;48.788;2.302;2023-09-07T03:26:25;8.57;;;4.43;;
59846;SDS011;45728;48.788;2.302;2023-09-07T03:28:51;5.78;;;4.60;;
59846;SDS011;45728;48.788;2.302;2023-09-07T03:31:17;5.50;;;4.28;;
59846;SDS011;45728;48.788;2.302;2023-09-07T03:33:43;8.00;;;5.00;;
59846;SDS011;45728;48.788;2.302;2023-09-07T03:36:10;9.50;;;4.32;;
59846;SDS011;45728;48.788;2.302;2023-09-07T03:38:39;6.82;;;4.80;;
59846;SDS011;45728;48.788;2.302;2023-09-07T03:41:05;6.47;;;4.47;;
59846;SDS011;45728;48.788;2.302;2023-09-07T03:43:31;5.85;;;4.65;;
59846;SDS011;45728;48.788;2.302;2023-09-07T03:45:57;6.72;;;4.57;;
59846;SDS011;45728;48.788;2.302;2023-09-07T03:48:24;5.07;;;4.18;;
59846;SDS011;45728;48.788;2.302;2023-09-07T03:50:50;8.75;;;4.30;;
59846;SDS011;45728;48.788;2.302;2023-09-07T03:53:16;5.60;;;4.35;;
59846;SDS011;45728;48.788;2.302;2023-09-07T03:55:42;6.75;;;4.15;;
59846;SDS011;45728;48.788;2.302;2023-09-07T03:58:10;5.85;;;4.63;;
59846;SDS011;45728;48.788;2.302;2023-09-07T04:00:43;8.30;;;4.70;;
59846;SDS011;45728;48.788;2.302;2023-09-07T04:03:09;6.53;;;4.80;;
59846;SDS011;45728;48.788;2.302;2023-09-07T04:05:38;7.25;;;4.88;;
59846;SDS011;45728;48.788;2.302;2023-09-07T04:08:05;6.03;;;5.13;;
59846;SDS011;45728;48.788;2.302;2023-09-07T04:10:31;6.63;;;4.88;;
59846;SDS011;45728;48.788;2.302;2023-09-07T04:12:57;5.60;;;4.80;;
59846;SDS011;45728;48.788;2.302;2023-09-07T04:15:23;7.97;;;5.38;;
59846;SDS011;45728;48.788;2.302;2023-09-07T04:17:51;7.28;;;4.85;;
59846;SDS011;45728;48.788;2.302;2023-09-07T04:20:17;6.22;;;5.00;;
59846;SDS011;45728;48.788;2.302;2023-09-07T04:22:43;5.00;;;4.30;;
59846;SDS011;45728;48.788;2.302;2023-09-07T04:25:09;10.65;;;5.35;;
59846;SDS011;45728;48.788;2.302;2023-09-07T04:27:35;8.82;;;5.10;;
59846;SDS011;45728;48.788;2.302;2023-09-07T04:30:01;6.72;;;5.05;;
59846;SDS011;45728;48.788;2.302;2023-09-07T04:32:27;9.07;;;5.47;;
59846;SDS011;45728;48.788;2.302;2023-09-07T04:34:56;6.90;;;4.85;;
59846;SDS011;45728;48.788;2.302;2023-09-07T04:37:24;7.25;;;4.75;;
59846;SDS011;45728;48.788;2.302;2023-09-07T04:39:51;6.43;;;4.40;;
59846;SDS011;45728;48.788;2.302;2023-09-07T04:42:20;6.90;;;4.40;;
59846;SDS011;45728;48.788;2.302;2023-09-07T04:44:47;4.72;;;4.22;;
59846;SDS011;45728;48.788;2.302;2023-09-07T04:47:13;6.22;;;4.90;;
59846;SDS011;45728;48.788;2.302;2023-09-07T04:49:42;7.28;;;5.00;;
59846;SDS011;45728;48.788;2.302;2023-09-07T04:52:15;7.40;;;4.88;;
59846;SDS011;45728;48.788;2.302;2023-09-07T04:54:41;8.07;;;4.57;;
59846;SDS011;45728;48.788;2.302;2023-09-07T04:57:08;9.18;;;5.45;;
59846;SDS011;45728;48.788;2.302;2023-09-07T04:59:34;6.30;;;4.90;;
59846;SDS011;45728;48.788;2.302;2023-09-07T05:02:00;4.97;;;4.50;;
59846;SDS011;45728;48.788;2.302;2023-09-07T05:04:29;8.00;;;5.15;;
59846;SDS011;45728;48.788;2.302;2023-09-07T05:06:56;6.88;;;4.57;;
59846;SDS011;45728;48.788;2.302;2023-09-07T05:09:22;7.78;;;4.60;;
59846;SDS011;45728;48.788;2.302;2023-09-07T05:11:50;6.90;;;5.22;;
59846;SDS011;45728;48.788;2.302;2023-09-07T05:14:17;6.15;;;5.03;;
59846;SDS011;45728;48.788;2.302;2023-09-07T05:16:43;7.88;;;5.30;;
59846;SDS011;45728;48.788;2.302;2023-09-07T05:19:09;8.18;;;5.30;;
59846;SDS011;45728;48.788;2.302;2023-09-07T05:21:35;6.93;;;5.65;;
59846;SDS011;45728;48.788;2.302;2023-09-07T05:24:01;7.78;;;4.97;;
59846;SDS011;45728;48.788;2.302;2023-09-07T05:26:28;6.28;;;5.13;;
59846;SDS011;45728;48.788;2.302;2023-09-07T05:28:54;7.15;;;5.03;;
59846;SDS011;45728;48.788;2.302;2023-09-07T05:31:20;9.32;;;5.30;;
59846;SDS011;45728;48.788;2.302;2023-09-07T05:33:46;10.98;;;5.55;;
59846;SDS011;45728;48.788;2.302;2023-09-07T05:36:12;6.20;;;5.07;;
59846;SDS011;45728;48.788;2.302;2023-09-07T05:38:38;8.52;;;5.53;;
59846;SDS011;45728;48.788;2.302;2023-09-07T05:41:04;9.50;;;5.07;;
59846;SDS011;45728;48.788;2.302;2023-09-07T05:43:30;10.63;;;5.50;;
59846;SDS011;45728;48.788;2.302;2023-09-07T05:45:56;7.28;;;4.90;;
59846;SDS011;45728;48.788;2.302;2023-09-07T05:48:22;7.10;;;5.55;;
59846;SDS011;45728;48.788;2.302;2023-09-07T05:50:48;7.90;;;6.20;;
59846;SDS011;45728;48.788;2.302;2023-09-07T05:53:14;6.60;;;5.63;;
59846;SDS011;45728;48.788;2.302;2023-09-07T05:55:40;7.93;;;5.82;;
59846;SDS011;45728;48.788;2.302;2023-09-07T05:58:07;7.10;;;5.45;;
59846;SDS011;45728;48.788;2.302;2023-09-07T06:00:34;7.80;;;5.82;;
59846;SDS011;45728;48.788;2.302;2023-09-07T06:03:01;9.30;;;6.13;;
59846;SDS011;45728;48.788;2.302;2023-09-07T06:05:28;8.85;;;6.15;;
59846;SDS011;45728;48.788;2.302;2023-09-07T06:07:54;8.85;;;6.18;;
59846;SDS011;45728;48.788;2.302;2023-09-07T06:10:21;12.50;;;6.22;;
59846;SDS011;45728;48.788;2.302;2023-09-07T06:12:47;18.90;;;6.70;;
59846;SDS011;45728;48.788;2.302;2023-09-07T06:15:13;8.32;;;5.55;;
59846;SDS011;45728;48.788;2.302;2023-09-07T06:17:39;8.52;;;5.88;;
59846;SDS011;45728;48.788;2.302;2023-09-07T06:20:05;10.13;;;6.00;;
59846;SDS011;45728;48.788;2.302;2023-09-07T06:22:32;7.93;;;5.80;;
59846;SDS011;45728;48.788;2.302;2023-09-07T06:24:58;12.57;;;5.60;;
59846;SDS011;45728;48.788;2.302;2023-09-07T06:27:24;11.70;;;6.00;;
59846;SDS011;45728;48.788;2.302;2023-09-07T06:29:50;11.45;;;6.63;;
59846;SDS011;45728;48.788;2.302;2023-09-07T06:32:16;14.45;;;6.63;;
59846;SDS011;45728;48.788;2.302;2023-09-07T06:34:42;11.85;;;6.18;;
59846;SDS011;45728;48.788;2.302;2023-09-07T06:37:08;8.50;;;6.28;;
59846;SDS011;45728;48.788;2.302;2023-09-07T06:39:34;14.63;;;6.55;;
59846;SDS011;45728;48.788;2.302;2023-09-07T06:42:00;10.02;;;6.65;;
59846;SDS011;45728;48.788;2.302;2023-09-07T06:44:26;8.88;;;6.45;;
59846;SDS011;45728;48.788;2.302;2023-09-07T06:46:52;10.95;;;6.90;;
59846;SDS011;45728;48.788;2.302;2023-09-07T06:49:18;19.98;;;8.00;;
59846;SDS011;45728;48.788;2.302;2023-09-07T06:51:44;11.85;;;6.82;;
59846;SDS011;45728;48.788;2.302;2023-09-07T06:54:11;11.80;;;6.57;;
59846;SDS011;45728;48.788;2.302;2023-09-07T06:56:38;17.52;;;7.28;;
59846;SDS011;45728;48.788;2.302;2023-09-07T06:59:04;18.63;;;8.07;;
59846;SDS011;45728;48.788;2.302;2023-09-07T07:01:30;18.77;;;7.50;;
59846;SDS011;45728;48.788;2.302;2023-09-07T07:03:56;14.20;;;7.65;;
59846;SDS011;45728;48.788;2.302;2023-09-07T07:06:22;12.93;;;7.18;;
59846;SDS011;45728;48.788;2.302;2023-09-07T07:08:49;16.08;;;7.25;;
59846;SDS011;45728;48.788;2.302;2023-09-07T07:11:16;9.75;;;6.32;;
59846;SDS011;45728;48.788;2.302;2023-09-07T07:13:42;11.88;;;6.43;;
59846;SDS011;45728;48.788;2.302;2023-09-07T07:16:09;9.15;;;5.68;;
59846;SDS011;45728;48.788;2.302;2023-09-07T07:18:35;11.32;;;6.18;;
59846;SDS011;45728;48.788;2.302;2023-09-07T07:21:01;12.35;;;5.90;;
59846;SDS011;45728;48.788;2.302;2023-09-07T07:23:27;8.85;;;5.22;;
59846;SDS011;45728;48.788;2.302;2023-09-07T07:25:53;7.90;;;5.28;;
59846;SDS011;45728;48.788;2.302;2023-09-07T07:28:19;11.35;;;5.28;;
59846;SDS011;45728;48.788;2.302;2023-09-07T07:30:45;9.32;;;5.82;;
59846;SDS011;45728;48.788;2.302;2023-09-07T07:33:13;9.23;;;5.90;;
59846;SDS011;45728;48.788;2.302;2023-09-07T07:35:39;5.90;;;4.75;;
59846;SDS011;45728;48.788;2.302;2023-09-07T07:38:06;8.80;;;5.28;;
59846;SDS011;45728;48.788;2.302;2023-09-07T07:40:33;7.82;;;4.55;;
59846;SDS011;45728;48.788;2.302;2023-09-07T07:42:59;9.20;;;4.63;;
59846;SDS011;45728;48.788;2.302;2023-09-07T07:45:25;10.95;;;4.82;;
59846;SDS011;45728;48.788;2.302;2023-09-07T07:47:52;6.13;;;5.00;;
59846;SDS011;45728;48.788;2.302;2023-09-07T07:50:18;7.35;;;5.50;;
59846;SDS011;45728;48.788;2.302;2023-09-07T07:52:44;7.10;;;4.85;;
59846;SDS011;45728;48.788;2.302;2023-09-07T07:55:10;8.25;;;5.32;;
59846;SDS011;45728;48.788;2.302;2023-09-07T07:57:37;7.65;;;4.40;;
59846;SDS011;45728;48.788;2.302;2023-09-07T08:00:04;9.18;;;4.90;;
59846;SDS011;45728;48.788;2.302;2023-09-07T08:02:31;10.60;;;5.20;;
59846;SDS011;45728;48.788;2.302;2023-09-07T08:04:57;7.22;;;5.05;;
59846;SDS011;45728;48.788;2.302;2023-09-07T08:07:24;10.75;;;4.88;;
59846;SDS011;45728;48.788;2.302;2023-09-07T08:09:52;6.47;;;4.68;;
59846;SDS011;45728;48.788;2.302;2023-09-07T08:12:18;9.40;;;4.35;;
59846;SDS011;45728;48.788;2.302;2023-09-07T08:14:44;7.40;;;4.53;;
59846;SDS011;45728;48.788;2.302;2023-09-07T08:17:10;10.02;;;5.38;;
59846;SDS011;45728;48.788;2.302;2023-09-07T08:19:36;8.65;;;5.38;;
59846;SDS011;45728;48.788;2.302;2023-09-07T08:22:04;11.05;;;5.22;;
59846;SDS011;45728;48.788;2.302;2023-09-07T08:24:31;9.63;;;4.95;;
59846;SDS011;45728;48.788;2.302;2023-09-07T08:26:57;10.55;;;5.28;;
59846;SDS011;45728;48.788;2.302;2023-09-07T08:29:25;12.65;;;5.85;;
59846;SDS011;45728;48.788;2.302;2023-09-07T08:31:53;9.38;;;4.95;;
59846;SDS011;45728;48.788;2.302;2023-09-07T08:34:19;10.70;;;5.40;;
59846;SDS011;45728;48.788;2.302;2023-09-07T08:36:47;12.45;;;5.82;;
59846;SDS011;45728;48.788;2.302;2023-09-07T08:39:15;6.25;;;4.78;;
59846;SDS011;45728;48.788;2.302;2023-09-07T08:41:43;8.88;;;4.57;;
59846;SDS011;45728;48.788;2.302;2023-09-07T08:44:10;11.52;;;5.28;;
59846;SDS011;45728;48.788;2.302;2023-09-07T08:46:37;12.27;;;5.28;;
59846;SDS011;45728;48.788;2.302;2023-09-07T08:49:03;7.75;;;5.35;;
59846;SDS011;45728;48.788;2.302;2023-09-07T08:51:30;9.85;;;4.82;;
59846;SDS011;45728;48.788;2.302;2023-09-07T08:54:01;8.05;;;5.07;;
59846;SDS011;45728;48.788;2.302;2023-09-07T08:56:28;7.95;;;5.30;;
59846;SDS011;45728;48.788;2.302;2023-09-07T08:58:54;10.82;;;5.60;;
59846;SDS011;45728;48.788;2.302;2023-09-07T09:01:21;7.68;;;5.50;;
59846;SDS011;45728;48.788;2.302;2023-09-07T09:03:47;13.25;;;5.78;;
59846;SDS011;45728;48.788;2.302;2023-09-07T09:06:16;11.23;;;5.30;;
59846;SDS011;45728;48.788;2.302;2023-09-07T09:08:48;10.13;;;5.25;;
59846;SDS011;45728;48.788;2.302;2023-09-07T09:11:19;9.10;;;5.50;;
59846;SDS011;45728;48.788;2.302;2023-09-07T09:13:46;9.57;;;5.25;;
59846;SDS011;45728;48.788;2.302;2023-09-07T09:16:13;7.57;;;6.00;;
59846;SDS011;45728;48.788;2.302;2023-09-07T09:18:53;7.90;;;4.90;;
59846;SDS011;45728;48.788;2.302;2023-09-07T09:21:22;11.90;;;5.18;;
59846;SDS011;45728;48.788;2.302;2023-09-07T09:23:50;11.55;;;5.18;;
59846;SDS011;45728;48.788;2.302;2023-09-07T09:26:17;13.07;;;5.28;;
59846;SDS011;45728;48.788;2.302;2023-09-07T09:28:44;10.15;;;5.38;;
59846;SDS011;45728;48.788;2.302;2023-09-07T09:31:11;8.52;;;5.32;;
59846;SDS011;45728;48.788;2.302;2023-09-07T09:33:38;8.68;;;5.68;;
59846;SDS011;45728;48.788;2.302;2023-09-07T09:36:05;12.27;;;5.20;;
59846;SDS011;45728;48.788;2.302;2023-09-07T09:38:33;8.55;;;5.75;;
59846;SDS011;45728;48.788;2.302;2023-09-07T09:41:00;9.27;;;4.80;;
59846;SDS011;45728;48.788;2.302;2023-09-07T09:43:28;9.45;;;6.03;;
59846;SDS011;45728;48.788;2.302;2023-09-07T09:45:55;8.75;;;6.00;;
59846;SDS011;45728;48.788;2.302;2023-09-07T09:48:22;13.20;;;5.93;;
59846;SDS011;45728;48.788;2.302;2023-09-07T09:50:49;13.68;;;6.32;;
59846;SDS011;45728;48.788;2.302;2023-09-07T09:53:16;9.65;;;5.53;;
59846;SDS011;45728;48.788;2.302;2023-09-07T09:55:48;9.98;;;5.75;;
59846;SDS011;45728;48.788;2.302;2023-09-07T09:58:16;11.77;;;5.35;;
59846;SDS011;45728;48.788;2.302;2023-09-07T10:00:42;10.68;;;5.95;;
59846;SDS011;45728;48.788;2.302;2023-09-07T10:03:12;8.20;;;5.70;;
59846;SDS011;45728;48.788;2.302;2023-09-07T10:05:46;11.32;;;6.38;;
59846;SDS011;45728;48.788;2.302;2023-09-07T10:08:12;8.52;;;5.75;;
59846;SDS011;45728;48.788;2.302;2023-09-07T10:10:40;12.13;;;5.65;;
59846;SDS011;45728;48.788;2.302;2023-09-07T10:13:07;8.25;;;5.05;;
59846;SDS011;45728;48.788;2.302;2023-09-07T10:15:34;11.57;;;5.18;;
59846;SDS011;45728;48.788;2.302;2023-09-07T10:18:05;9.55;;;4.95;;
59846;SDS011;45728;48.788;2.302;2023-09-07T10:20:52;9.27;;;5.53;;
59846;SDS011;45728;48.788;2.302;2023-09-07T10:23:21;9.38;;;5.18;;
59846;SDS011;45728;48.788;2.302;2023-09-07T10:25:49;7.13;;;4.85;;
59846;SDS011;45728;48.788;2.302;2023-09-07T10:28:17;9.13;;;4.80;;
59846;SDS011;45728;48.788;2.302;2023-09-07T10:30:59;11.90;;;4.97;;
59846;SDS011;45728;48.788;2.302;2023-09-07T10:33:33;12.23;;;4.72;;
59846;SDS011;45728;48.788;2.302;2023-09-07T10:36:01;10.27;;;4.93;;
59846;SDS011;45728;48.788;2.302;2023-09-07T10:38:29;12.65;;;5.28;;
59846;SDS011;45728;48.788;2.302;2023-09-07T10:41:00;8.45;;;5.10;;
59846;SDS011;45728;48.788;2.302;2023-09-07T10:43:30;8.52;;;5.13;;
59846;SDS011;45728;48.788;2.302;2023-09-07T10:45:58;9.02;;;4.88;;
59846;SDS011;45728;48.788;2.302;2023-09-07T10:48:26;11.32;;;4.75;;
59846;SDS011;45728;48.788;2.302;2023-09-07T10:50:55;7.70;;;4.68;;
59846;SDS011;45728;48.788;2.302;2023-09-07T10:53:26;8.20;;;4.45;;
59846;SDS011;45728;48.788;2.302;2023-09-07T10:55:57;6.82;;;4.35;;
59846;SDS011;45728;48.788;2.302;2023-09-07T10:58:30;8.93;;;4.88;;
59846;SDS011;45728;48.788;2.302;2023-09-07T11:00:58;7.55;;;4.28;;
59846;SDS011;45728;48.788;2.302;2023-09-07T11:03:24;7.63;;;4.68;;
59846;SDS011;45728;48.788;2.302;2023-09-07T11:06:06;9.20;;;4.20;;
59846;SDS011;45728;48.788;2.302;2023-09-07T11:08:36;12.00;;;4.78;;
59846;SDS011;45728;48.788;2.302;2023-09-07T11:11:02;8.00;;;4.13;;
59846;SDS011;45728;48.788;2.302;2023-09-07T11:13:29;7.85;;;4.20;;
59846;SDS011;45728;48.788;2.302;2023-09-07T11:15:56;9.57;;;4.55;;
59846;SDS011;45728;48.788;2.302;2023-09-07T11:18:24;11.80;;;4.57;;
59846;SDS011;45728;48.788;2.302;2023-09-07T11:20:51;9.30;;;4.70;;
59846;SDS011;45728;48.788;2.302;2023-09-07T11:23:18;12.02;;;4.57;;
59846;SDS011;45728;48.788;2.302;2023-09-07T11:25:49;8.93;;;4.03;;
59846;SDS011;45728;48.788;2.302;2023-09-07T11:28:17;6.47;;;4.47;;
59846;SDS011;45728;48.788;2.302;2023-09-07T11:30:53;10.00;;;5.00;;
59846;SDS011;45728;48.788;2.302;2023-09-07T11:33:21;6.82;;;4.32;;
59846;SDS011;45728;48.788;2.302;2023-09-07T11:35:48;11.00;;;4.20;;
59846;SDS011;45728;48.788;2.302;2023-09-07T11:38:14;6.85;;;4.38;;
59846;SDS011;45728;48.788;2.302;2023-09-07T11:40:42;7.90;;;4.32;;
59846;SDS011;45728;48.788;2.302;2023-09-07T11:43:11;8.45;;;4.45;;
59846;SDS011;45728;48.788;2.302;2023-09-07T11:45:42;8.25;;;4.13;;
59846;SDS011;45728;48.788;2.302;2023-09-07T11:48:09;10.55;;;4.63;;
59846;SDS011;45728;48.788;2.302;2023-09-07T11:50:36;10.93;;;4.30;;
59846;SDS011;45728;48.788;2.302;2023-09-07T11:53:03;11.05;;;4.47;;
59846;SDS011;45728;48.788;2.302;2023-09-07T11:55:30;10.60;;;5.03;;
59846;SDS011;45728;48.788;2.302;2023-09-07T11:57:56;8.45;;;4.68;;
59846;SDS011;45728;48.788;2.302;2023-09-07T12:00:23;12.32;;;4.40;;
59846;SDS011;45728;48.788;2.302;2023-09-07T12:02:49;10.65;;;4.47;;
59846;SDS011;45728;48.788;2.302;2023-09-07T12:05:15;9.93;;;4.95;;
59846;SDS011;45728;48.788;2.302;2023-09-07T12:07:43;11.13;;;4.77;;
59846;SDS011;45728;48.788;2.302;2023-09-07T12:10:09;10.43;;;5.40;;
59846;SDS011;45728;48.788;2.302;2023-09-07T12:12:39;8.63;;;6.18;;
59846;SDS011;45728;48.788;2.302;2023-09-07T12:15:06;6.38;;;4.35;;
59846;SDS011;45728;48.788;2.302;2023-09-07T12:17:33;8.32;;;4.10;;
59846;SDS011;45728;48.788;2.302;2023-09-07T12:19:59;8.65;;;4.38;;
59846;SDS011;45728;48.788;2.302;2023-09-07T12:22:29;9.38;;;4.63;;
59846;SDS011;45728;48.788;2.302;2023-09-07T12:24:55;10.38;;;6.38;;
59846;SDS011;45728;48.788;2.302;2023-09-07T12:27:21;7.03;;;4.38;;
59846;SDS011;45728;48.788;2.302;2023-09-07T12:29:47;8.23;;;4.30;;
59846;SDS011;45728;48.788;2.302;2023-09-07T12:32:14;6.65;;;4.18;;
59846;SDS011;45728;48.788;2.302;2023-09-07T12:34:40;7.70;;;4.32;;
59846;SDS011;45728;48.788;2.302;2023-09-07T12:37:06;7.25;;;4.22;;
59846;SDS011;45728;48.788;2.302;2023-09-07T12:39:32;8.15;;;4.45;;
59846;SDS011;45728;48.788;2.302;2023-09-07T12:41:59;7.47;;;4.70;;
59846;SDS011;45728;48.788;2.302;2023-09-07T12:44:25;8.77;;;4.85;;
59846;SDS011;45728;48.788;2.302;2023-09-07T12:46:51;6.47;;;4.57;;
59846;SDS011;45728;48.788;2.302;2023-09-07T12:49:17;8.27;;;4.68;;
59846;SDS011;45728;48.788;2.302;2023-09-07T12:51:44;6.88;;;4.35;;
59846;SDS011;45728;48.788;2.302;2023-09-07T12:54:12;10.63;;;4.50;;
59846;SDS011;45728;48.788;2.302;2023-09-07T12:56:38;6.07;;;4.57;;
59846;SDS011;45728;48.788;2.302;2023-09-07T12:59:04;8.82;;;4.13;;
59846;SDS011;45728;48.788;2.302;2023-09-07T13:01:30;8.57;;;4.68;;
59846;SDS011;45728;48.788;2.302;2023-09-07T13:03:57;8.23;;;4.47;;
59846;SDS011;45728;48.788;2.302;2023-09-07T13:06:23;11.40;;;4.28;;
59846;SDS011;45728;48.788;2.302;2023-09-07T13:08:50;8.63;;;4.78;;
59846;SDS011;45728;48.788;2.302;2023-09-07T13:11:16;8.13;;;4.25;;
59846;SDS011;45728;48.788;2.302;2023-09-07T13:13:42;6.13;;;4.50;;
59846;SDS011;45728;48.788;2.302;2023-09-07T13:16:08;5.47;;;4.15;;
59846;SDS011;45728;48.788;2.302;2023-09-07T13:18:35;5.60;;;4.10;;
59846;SDS011;45728;48.788;2.302;2023-09-07T13:21:01;11.65;;;4.22;;
59846;SDS011;45728;48.788;2.302;2023-09-07T13:23:28;8.88;;;4.43;;
59846;SDS011;45728;48.788;2.302;2023-09-07T13:25:54;8.30;;;4.70;;
59846;SDS011;45728;48.788;2.302;2023-09-07T13:28:21;9.30;;;4.63;;
59846;SDS011;45728;48.788;2.302;2023-09-07T13:30:50;7.55;;;4.35;;
59846;SDS011;45728;48.788;2.302;2023-09-07T13:33:16;6.82;;;3.80;;
59846;SDS011;45728;48.788;2.302;2023-09-07T13:35:42;11.15;;;4.18;;
59846;SDS011;45728;48.788;2.302;2023-09-07T13:38:09;8.82;;;3.97;;
59846;SDS011;45728;48.788;2.302;2023-09-07T13:40:36;6.35;;;4.22;;
59846;SDS011;45728;48.788;2.302;2023-09-07T13:43:02;5.80;;;4.50;;
59846;SDS011;45728;48.788;2.302;2023-09-07T13:45:28;7.78;;;4.45;;
59846;SDS011;45728;48.788;2.302;2023-09-07T13:47:55;8.75;;;4.00;;
59846;SDS011;45728;48.788;2.302;2023-09-07T13:50:21;7.95;;;4.53;;
59846;SDS011;45728;48.788;2.302;2023-09-07T13:52:48;6.93;;;4.57;;
59846;SDS011;45728;48.788;2.302;2023-09-07T13:55:14;7.57;;;4.30;;
59846;SDS011;45728;48.788;2.302;2023-09-07T13:57:40;6.10;;;4.20;;
59846;SDS011;45728;48.788;2.302;2023-09-07T14:00:06;6.50;;;4.43;;
59846;SDS011;45728;48.788;2.302;2023-09-07T14:02:33;7.38;;;4.00;;
59846;SDS011;45728;48.788;2.302;2023-09-07T14:04:59;7.75;;;4.40;;
59846;SDS011;45728;48.788;2.302;2023-09-07T14:07:25;8.70;;;4.20;;
59846;SDS011;45728;48.788;2.302;2023-09-07T14:09:51;7.63;;;4.05;;
59846;SDS011;45728;48.788;2.302;2023-09-07T14:12:19;8.40;;;3.80;;
59846;SDS011;45728;48.788;2.302;2023-09-07T14:14:45;5.55;;;4.07;;
59846;SDS011;45728;48.788;2.302;2023-09-07T14:17:11;9.10;;;4.38;;
59846;SDS011;45728;48.788;2.302;2023-09-07T14:19:37;15.30;;;4.55;;
59846;SDS011;45728;48.788;2.302;2023-09-07T14:22:03;12.15;;;4.28;;
59846;SDS011;45728;48.788;2.302;2023-09-07T14:24:29;5.97;;;4.45;;
59846;SDS011;45728;48.788;2.302;2023-09-07T14:26:55;8.27;;;4.30;;
59846;SDS011;45728;48.788;2.302;2023-09-07T14:29:22;8.98;;;4.80;;
59846;SDS011;45728;48.788;2.302;2023-09-07T14:31:48;5.85;;;4.10;;
59846;SDS011;45728;48.788;2.302;2023-09-07T14:34:14;5.00;;;4.00;;
59846;SDS011;45728;48.788;2.302;2023-09-07T14:36:40;7.35;;;4.28;;
59846;SDS011;45728;48.788;2.302;2023-09-07T14:39:06;7.38;;;4.32;;
59846;SDS011;45728;48.788;2.302;2023-09-07T14:41:34;7.65;;;4.55;;
59846;SDS011;45728;48.788;2.302;2023-09-07T14:44:01;6.30;;;4.15;;
59846;SDS011;45728;48.788;2.302;2023-09-07T14:46:27;5.82;;;4.10;;
59846;SDS011;45728;48.788;2.302;2023-09-07T14:48:53;8.98;;;4.50;;
59846;SDS011;45728;48.788;2.302;2023-09-07T14:51:20;8.95;;;4.20;;
59846;SDS011;45728;48.788;2.302;2023-09-07T14:53:46;5.88;;;4.22;;